createdAt,value
2019-04-14T00:00:38.879Z,26.80
2019-04-14T00:03:06.603Z,26.80
2019-04-14T00:05:34.448Z,26.80
2019-04-14T00:08:02.420Z,26.60
2019-04-14T00:10:29.207Z,26.70
2019-04-14T00:12:55.926Z,26.80
2019-04-14T00:15:30.939Z,26.80
2019-04-14T00:17:52.485Z,26.80
2019-04-14T00:20:19.291Z,26.90
2019-04-14T00:22:46.806Z,26.80
2019-04-14T00:25:13.600Z,26.90
2019-04-14T00:27:41.004Z,26.80
2019-04-14T00:30:07.805Z,26.90
2019-04-14T00:32:35.445Z,26.90
2019-04-14T00:35:02.265Z,26.90
2019-04-14T00:37:29.426Z,27.00
2019-04-14T00:39:56.198Z,27.00
2019-04-14T00:42:23.443Z,27.00
2019-04-14T00:44:51.732Z,27.00
2019-04-14T00:47:18.545Z,27.00
2019-04-14T00:49:46.277Z,26.90
2019-04-14T00:52:13.182Z,27.00
2019-04-14T00:54:41.324Z,27.10
2019-04-14T00:57:09.336Z,27.60
2019-04-14T00:59:37.357Z,27.10
2019-04-14T01:02:05.571Z,27.10
2019-04-14T01:04:33.754Z,27.00
2019-04-14T01:07:02.232Z,27.20
2019-04-14T01:09:29.003Z,27.20
2019-04-14T01:11:55.728Z,27.10
2019-04-14T01:14:23.296Z,27.30
2019-04-14T01:16:50.120Z,27.10
2019-04-14T01:19:17.762Z,27.30
2019-04-14T01:21:45.755Z,27.20
2019-04-14T01:24:12.558Z,27.10
2019-04-14T01:26:40.007Z,27.00
2019-04-14T01:29:07.925Z,26.90
2019-04-14T01:31:35.957Z,27.00
2019-04-14T01:34:02.653Z,27.00
2019-04-14T01:36:29.872Z,26.80
2019-04-14T01:38:56.560Z,26.80
2019-04-14T01:41:23.918Z,26.70
2019-04-14T01:43:51.683Z,26.80
2019-04-14T01:46:23.133Z,26.60
2019-04-14T01:48:47.533Z,26.80
2019-04-14T01:51:15.432Z,26.70
2019-04-14T01:53:42.359Z,26.80
2019-04-14T01:56:10.148Z,26.70
2019-04-14T01:58:38.150Z,26.40
2019-04-14T02:01:06.166Z,26.60
2019-04-14T02:03:32.930Z,26.60
2019-04-14T02:06:00.376Z,26.40
2019-04-14T02:08:28.307Z,26.30
2019-04-14T02:10:56.466Z,26.20
2019-04-14T02:13:24.643Z,26.10
2019-04-14T02:15:52.725Z,26.00
2019-04-14T02:18:20.724Z,26.10
2019-04-14T02:20:49.078Z,25.60
2019-04-14T02:23:17.011Z,26.00
2019-04-14T02:25:44.945Z,26.30
2019-04-14T02:28:11.832Z,25.90
2019-04-14T02:30:47.026Z,26.20
2019-04-14T02:36:06.266Z,25.90
2019-04-14T02:38:49.418Z,25.90
2019-04-14T02:41:09.288Z,25.60
2019-04-14T02:43:29.403Z,25.70
2019-04-14T02:48:41.949Z,25.30
2019-04-14T02:50:48.126Z,25.20
2019-04-14T02:55:51.798Z,25.40
2019-04-14T02:58:20.351Z,25.20
2019-04-14T03:00:48.080Z,25.40
2019-04-14T03:03:16.814Z,25.20
2019-04-14T03:05:44.849Z,25.40
2019-04-14T03:08:06.471Z,25.10
2019-04-14T03:13:15.149Z,25.00
2019-04-14T03:18:24.065Z,25.00
2019-04-14T03:22:55.658Z,24.70
2019-04-14T03:25:21.116Z,24.50
2019-04-14T03:28:12.615Z,24.70
2019-04-14T03:35:52.528Z,24.50
2019-04-14T03:37:50.929Z,24.80
2019-04-14T03:40:20.813Z,24.60
2019-04-14T03:45:28.432Z,23.90
2019-04-14T03:47:44.448Z,24.00
2019-04-14T03:50:16.486Z,24.00
2019-04-14T03:52:55.729Z,24.20
2019-04-14T03:55:04.158Z,24.10
2019-04-14T03:57:12.586Z,24.00
2019-04-14T03:59:39.316Z,24.00
2019-04-14T04:02:06.034Z,24.00
2019-04-14T04:04:33.755Z,24.00
2019-04-14T04:07:01.747Z,23.70
2019-04-14T04:09:28.576Z,23.50
2019-04-14T04:11:56.350Z,23.60
2019-04-14T04:14:23.138Z,23.20
2019-04-14T04:16:50.780Z,22.60
2019-04-14T04:19:19.753Z,23.10
2019-04-14T04:21:46.810Z,23.10
2019-04-14T04:24:13.538Z,23.50
2019-04-14T04:26:40.715Z,23.10
2019-04-14T04:29:07.442Z,22.60
2019-04-14T04:31:35.044Z,23.00
2019-04-14T04:34:01.850Z,23.00
2019-04-14T04:36:29.174Z,23.10
2019-04-14T04:38:55.894Z,23.60
2019-04-14T04:41:23.276Z,23.30
2019-04-14T04:43:50.127Z,23.20
2019-04-14T04:46:17.692Z,22.50
2019-04-14T04:48:58.318Z,22.60
2019-04-14T04:51:13.948Z,22.70
2019-04-14T04:53:41.895Z,22.40
2019-04-14T04:56:10.002Z,22.30
2019-04-14T04:58:37.166Z,22.20
2019-04-14T05:01:03.924Z,21.90
2019-04-14T05:03:31.721Z,21.90
2019-04-14T05:05:58.533Z,22.00
2019-04-14T05:08:26.300Z,21.80
2019-04-14T05:10:53.058Z,21.20
2019-04-14T05:13:20.574Z,22.00
2019-04-14T05:15:47.325Z,21.80
2019-04-14T05:18:14.090Z,21.50
2019-04-14T05:20:41.957Z,21.40
2019-04-14T05:23:08.746Z,21.40
2019-04-14T05:25:36.528Z,21.80
2019-04-14T05:28:03.359Z,21.80
2019-04-14T05:30:30.704Z,21.80
2019-04-14T05:32:58.511Z,21.30
2019-04-14T05:35:25.411Z,21.30
2019-04-14T05:37:52.983Z,21.40
2019-04-14T05:40:20.951Z,21.80
2019-04-14T05:42:47.754Z,21.50
2019-04-14T05:45:15.474Z,21.10
2019-04-14T05:47:43.560Z,20.80
2019-04-14T05:50:11.551Z,20.70
2019-04-14T05:52:38.359Z,20.20
2019-04-14T05:55:05.151Z,20.50
2019-04-14T05:57:32.716Z,20.70
2019-04-14T05:59:59.453Z,20.20
2019-04-14T06:02:27.869Z,20.50
2019-04-14T06:04:55.020Z,20.20
2019-04-14T06:07:21.765Z,20.30
2019-04-14T06:09:48.547Z,20.60
2019-04-14T06:12:15.276Z,20.80
2019-04-14T06:14:42.006Z,20.40
2019-04-14T06:17:08.772Z,20.00
2019-04-14T06:19:38.052Z,20.20
2019-04-14T06:22:03.861Z,20.80
2019-04-14T06:24:30.642Z,21.20
2019-04-14T06:26:57.382Z,21.20
2019-04-14T06:29:24.113Z,20.00
2019-04-14T06:31:50.887Z,20.50
2019-04-14T06:34:17.608Z,21.10
2019-04-14T06:36:44.340Z,20.30
2019-04-14T06:39:11.116Z,20.30
2019-04-14T06:41:37.882Z,20.80
2019-04-14T06:44:04.719Z,20.10
2019-04-14T06:46:31.564Z,20.40
2019-04-14T06:48:58.403Z,19.50
2019-04-14T06:51:25.247Z,19.40
2019-04-14T06:53:52.088Z,18.90
2019-04-14T06:56:18.929Z,19.30
2019-04-14T06:58:45.774Z,18.80
2019-04-14T07:01:12.612Z,19.00
2019-04-14T07:03:39.453Z,18.20
2019-04-14T07:06:06.295Z,19.00
2019-04-14T07:08:33.139Z,18.90
2019-04-14T07:10:59.983Z,19.00
2019-04-14T07:13:26.818Z,18.50
2019-04-14T07:15:53.668Z,18.40
2019-04-14T07:18:20.512Z,18.10
2019-04-14T07:20:47.348Z,18.00
2019-04-14T07:23:14.651Z,18.20
2019-04-14T07:25:41.443Z,17.70
2019-04-14T07:28:08.325Z,18.00
2019-04-14T07:30:35.131Z,17.70
2019-04-14T07:33:01.972Z,18.40
2019-04-14T07:35:28.814Z,18.70
2019-04-14T07:37:55.647Z,18.30
2019-04-14T07:40:22.567Z,18.00
2019-04-14T07:42:49.355Z,18.40
2019-04-14T07:45:16.386Z,18.30
2019-04-14T07:47:43.147Z,17.80
2019-04-14T07:50:14.972Z,18.30
2019-04-14T07:52:38.326Z,18.40
2019-04-14T07:55:05.184Z,18.40
2019-04-14T07:57:31.868Z,18.40
2019-04-14T07:59:58.656Z,18.10
2019-04-14T08:02:25.391Z,17.40
2019-04-14T08:04:52.267Z,17.10
2019-04-14T08:07:19.553Z,17.50
2019-04-14T08:09:46.308Z,18.10
2019-04-14T08:12:13.027Z,17.20
2019-04-14T08:14:40.125Z,17.30
2019-04-14T08:17:06.865Z,16.20
2019-04-14T08:19:33.583Z,16.40
2019-04-14T08:22:00.387Z,16.50
2019-04-14T08:24:27.118Z,15.70
2019-04-14T08:26:53.917Z,15.10
2019-04-14T08:29:20.693Z,15.70
2019-04-14T08:31:47.412Z,14.90
2019-04-14T08:34:14.340Z,15.50
2019-04-14T08:36:41.180Z,16.30
2019-04-14T08:39:07.921Z,15.80
2019-04-14T08:41:34.772Z,15.50
2019-04-14T08:44:01.709Z,15.90
2019-04-14T08:46:28.445Z,15.20
2019-04-14T08:48:55.579Z,15.40
2019-04-14T08:51:22.463Z,15.40
2019-04-14T08:53:49.247Z,14.80
2019-04-14T08:56:15.970Z,14.90
2019-04-14T08:58:42.767Z,14.80
2019-04-14T09:01:09.499Z,14.20
2019-04-14T09:03:36.231Z,14.60
2019-04-14T09:06:03.394Z,14.30
2019-04-14T09:08:30.128Z,13.90
2019-04-14T09:10:56.856Z,14.00
2019-04-14T09:13:23.644Z,13.30
2019-04-14T09:15:50.369Z,12.60
2019-04-14T09:18:17.087Z,12.80
2019-04-14T09:20:52.188Z,12.80
2019-04-14T09:23:12.268Z,13.10
2019-04-14T09:25:39.006Z,13.50
2019-04-14T09:28:05.782Z,13.30
2019-04-14T09:30:32.521Z,13.20
2019-04-14T09:32:59.264Z,13.50
2019-04-14T09:35:26.052Z,13.60
2019-04-14T09:37:52.803Z,14.00
2019-04-14T09:40:19.530Z,13.90
2019-04-14T09:42:46.311Z,13.20
2019-04-14T09:45:13.061Z,12.50
2019-04-14T09:47:39.794Z,11.90
2019-04-14T09:50:06.586Z,12.00
2019-04-14T09:52:33.313Z,11.80
2019-04-14T09:55:00.052Z,12.00
2019-04-14T09:57:26.859Z,11.30
2019-04-14T09:59:53.594Z,11.70
2019-04-14T10:02:20.338Z,11.20
2019-04-14T10:04:47.129Z,11.60
2019-04-14T10:07:13.856Z,11.50
2019-04-14T10:09:40.570Z,10.40
2019-04-14T10:12:07.360Z,10.50
2019-04-14T10:14:34.121Z,10.70
2019-04-14T10:17:01.504Z,10.80
2019-04-14T10:19:28.447Z,10.40
2019-04-14T10:21:55.172Z,10.00
2019-04-14T10:24:21.905Z,10.30
2019-04-14T10:26:48.686Z,10.50
2019-04-14T10:29:15.449Z,9.50
2019-04-14T10:31:42.178Z,9.00
2019-04-14T10:34:10.002Z,10.10
2019-04-14T10:36:36.699Z,10.30
2019-04-14T10:39:03.436Z,10.10
2019-04-14T10:41:30.553Z,10.40
2019-04-14T10:43:57.270Z,9.50
2019-04-14T10:46:24.028Z,9.20
2019-04-14T10:48:50.848Z,8.50
2019-04-14T10:51:29.186Z,8.50
2019-04-14T10:53:45.903Z,8.00
2019-04-14T10:56:12.686Z,8.60
2019-04-14T10:58:39.422Z,9.10
2019-04-14T11:01:06.155Z,8.40
2019-04-14T11:03:32.961Z,7.90
2019-04-14T11:05:59.701Z,8.40
2019-04-14T11:08:26.425Z,8.10
2019-04-14T11:10:53.218Z,8.00
2019-04-14T11:13:19.940Z,7.60
2019-04-14T11:15:46.661Z,8.60
2019-04-14T11:18:13.461Z,8.20
2019-04-14T11:20:40.236Z,7.10
2019-04-14T11:23:06.963Z,7.70
2019-04-14T11:25:33.757Z,7.90
2019-04-14T11:28:00.478Z,7.90
2019-04-14T11:30:27.204Z,7.40
2019-04-14T11:32:54.038Z,6.40
2019-04-14T11:35:20.788Z,7.20
2019-04-14T11:37:47.511Z,7.00
2019-04-14T11:40:14.989Z,6.50
2019-04-14T11:42:51.879Z,6.90
2019-04-14T11:45:10.167Z,6.80
2019-04-14T11:47:36.948Z,7.20
2019-04-14T11:50:03.668Z,6.20
2019-04-14T11:52:30.411Z,6.40
2019-04-14T11:54:57.188Z,6.50
2019-04-14T11:57:23.912Z,6.50
2019-04-14T11:59:50.640Z,6.90
2019-04-14T12:02:17.443Z,6.90
2019-04-14T12:04:44.186Z,7.30
2019-04-14T12:07:10.923Z,5.80
2019-04-14T12:09:37.710Z,6.50
2019-04-14T12:12:04.441Z,5.90
2019-04-14T12:14:31.167Z,6.50
2019-04-14T12:16:58.055Z,6.30
2019-04-14T12:19:24.903Z,5.90
2019-04-14T12:21:51.743Z,6.00
2019-04-14T12:24:18.681Z,6.10
2019-04-14T12:26:45.435Z,6.30
2019-04-14T12:29:12.136Z,6.10
2019-04-14T12:31:39.584Z,6.30
2019-04-14T12:34:06.351Z,6.40
2019-04-14T12:36:33.090Z,5.80
2019-04-14T12:38:59.876Z,5.40
2019-04-14T12:41:26.710Z,6.00
2019-04-14T12:43:53.473Z,6.60
2019-04-14T12:46:20.246Z,6.40
2019-04-14T12:48:46.970Z,6.20
2019-04-14T12:51:13.700Z,6.30
2019-04-14T12:53:40.684Z,6.50
2019-04-14T12:56:07.413Z,5.90
2019-04-14T12:58:34.135Z,6.00
2019-04-14T13:01:00.930Z,5.60
2019-04-14T13:03:27.652Z,5.60
2019-04-14T13:05:54.375Z,4.80
2019-04-14T13:08:21.163Z,5.80
2019-04-14T13:10:47.911Z,6.00
2019-04-14T13:13:14.655Z,5.60
2019-04-14T13:15:41.447Z,5.00
2019-04-14T13:18:08.220Z,4.80
2019-04-14T13:20:34.944Z,5.40
2019-04-14T13:23:01.725Z,5.30
2019-04-14T13:25:28.457Z,5.60
2019-04-14T13:27:55.195Z,5.60
2019-04-14T13:30:21.991Z,5.90
2019-04-14T13:32:48.700Z,5.70
2019-04-14T13:35:15.420Z,5.80
2019-04-14T13:37:42.232Z,6.40
2019-04-14T13:40:09.051Z,6.50
2019-04-14T13:42:35.774Z,5.90
2019-04-14T13:45:02.563Z,6.00
2019-04-14T13:47:29.303Z,6.40
2019-04-14T13:49:56.040Z,7.00
2019-04-14T13:52:23.042Z,6.80
2019-04-14T13:54:49.798Z,6.70
2019-04-14T13:57:16.520Z,6.70
2019-04-14T13:59:43.315Z,6.20
2019-04-14T14:02:10.060Z,6.80
2019-04-14T14:04:36.780Z,6.80
2019-04-14T14:07:03.755Z,6.90
2019-04-14T14:09:30.516Z,7.00
2019-04-14T14:11:57.247Z,6.40
2019-04-14T14:14:24.040Z,7.40
2019-04-14T14:16:50.765Z,7.10
2019-04-14T14:19:17.482Z,7.00
2019-04-14T14:21:44.475Z,7.30
2019-04-14T14:24:11.217Z,7.40
2019-04-14T14:26:37.930Z,7.40
2019-04-14T14:29:04.705Z,6.80
2019-04-14T14:31:31.428Z,7.30
2019-04-14T14:33:58.161Z,7.80
2019-04-14T14:36:24.937Z,7.70
2019-04-14T14:38:51.667Z,7.70
2019-04-14T14:41:18.389Z,8.20
2019-04-14T14:43:45.170Z,7.50
2019-04-14T14:46:11.918Z,7.60
2019-04-14T14:48:38.670Z,7.90
2019-04-14T14:51:05.452Z,8.10
2019-04-14T14:53:32.212Z,8.10
2019-04-14T14:55:58.943Z,9.40
2019-04-14T14:58:25.739Z,9.10
2019-04-14T15:00:52.476Z,9.10
2019-04-14T15:03:19.313Z,9.00
2019-04-14T15:05:46.207Z,8.60
2019-04-14T15:08:13.561Z,9.00
2019-04-14T15:10:40.638Z,8.90
2019-04-14T15:13:07.477Z,9.00
2019-04-14T15:15:34.323Z,9.40
2019-04-14T15:18:01.165Z,9.50
2019-04-14T15:20:28.008Z,9.10
2019-04-14T15:22:54.842Z,9.70
2019-04-14T15:25:21.590Z,9.80
2019-04-14T15:27:48.426Z,9.20
2019-04-14T15:30:15.163Z,9.60
2019-04-14T15:32:41.900Z,9.90
2019-04-14T15:35:08.750Z,9.70
2019-04-14T15:37:35.589Z,9.90
2019-04-14T15:40:02.426Z,9.60
2019-04-14T15:42:29.269Z,9.60
2019-04-14T15:44:56.150Z,9.30
2019-04-14T15:47:23.175Z,9.70
2019-04-14T15:49:50.004Z,9.80
2019-04-14T15:52:16.846Z,10.10
2019-04-14T15:54:43.758Z,10.90
2019-04-14T15:57:10.980Z,10.50
2019-04-14T15:59:37.774Z,10.20
2019-04-14T16:02:04.523Z,10.30
2019-04-14T16:04:31.312Z,10.50
2019-04-14T16:06:58.102Z,10.30
2019-04-14T16:09:25.072Z,10.30
2019-04-14T16:11:51.859Z,10.30
2019-04-14T16:14:18.585Z,10.50
2019-04-14T16:16:45.338Z,10.60
2019-04-14T16:19:12.140Z,10.80
2019-04-14T16:21:38.878Z,10.90
2019-04-14T16:24:05.586Z,10.90
2019-04-14T16:26:32.384Z,11.10
2019-04-14T16:28:59.126Z,11.20
2019-04-14T16:31:25.865Z,11.50
2019-04-14T16:33:52.657Z,11.40
2019-04-14T16:36:19.486Z,11.70
2019-04-14T16:38:46.271Z,11.30
2019-04-14T16:41:13.061Z,11.20
2019-04-14T16:43:39.795Z,11.20
2019-04-14T16:46:06.506Z,11.50
2019-04-14T16:48:33.339Z,11.30
2019-04-14T16:51:00.060Z,11.40
2019-04-14T16:53:26.870Z,10.90
2019-04-14T16:55:53.650Z,11.10
2019-04-14T16:58:20.371Z,11.10
2019-04-14T17:00:47.071Z,11.20
2019-04-14T17:03:13.857Z,11.30
2019-04-14T17:05:40.730Z,11.30
2019-04-14T17:08:08.577Z,11.40
2019-04-14T17:10:35.383Z,11.60
2019-04-14T17:13:02.107Z,11.30
2019-04-14T17:15:28.843Z,11.60
2019-04-14T17:17:56.522Z,11.70
2019-04-14T17:20:23.398Z,12.00
2019-04-14T17:22:50.127Z,12.30
2019-04-14T17:25:17.222Z,12.20
2019-04-14T17:27:44.105Z,12.50
2019-04-14T17:30:10.827Z,12.50
2019-04-14T17:32:37.787Z,12.90
2019-04-14T17:35:07.030Z,12.80
2019-04-14T17:37:32.968Z,13.10
2019-04-14T17:39:59.827Z,13.00
2019-04-14T17:42:26.559Z,13.10
2019-04-14T17:44:53.301Z,13.20
2019-04-14T17:47:20.101Z,13.10
2019-04-14T17:49:46.907Z,13.20
2019-04-14T17:52:13.635Z,13.30
2019-04-14T17:54:40.440Z,13.30
2019-04-14T17:57:07.193Z,13.40
2019-04-14T17:59:35.507Z,13.50
2019-04-14T18:02:02.979Z,13.60
2019-04-14T18:04:29.840Z,13.60
2019-04-14T18:06:57.294Z,13.80
2019-04-14T18:09:24.634Z,13.60
2019-04-14T18:11:51.769Z,13.60
2019-04-14T18:14:19.117Z,13.90
2019-04-14T18:16:46.574Z,14.00
2019-04-14T18:19:13.409Z,14.40
2019-04-14T18:21:40.125Z,13.90
2019-04-14T18:24:08.976Z,14.20
2019-04-14T18:26:36.028Z,14.30
2019-04-14T18:29:02.762Z,14.40
2019-04-14T18:31:29.557Z,14.30
2019-04-14T18:33:56.284Z,14.50
2019-04-14T18:36:23.034Z,14.80
2019-04-14T18:38:49.817Z,14.70
2019-04-14T18:41:16.596Z,14.70
2019-04-14T18:43:43.345Z,14.40
2019-04-14T18:46:10.137Z,14.50
2019-04-14T18:48:36.865Z,14.70
2019-04-14T18:51:03.795Z,14.70
2019-04-14T18:53:30.561Z,14.70
2019-04-14T18:55:57.297Z,14.70
2019-04-14T18:58:24.033Z,14.40
2019-04-14T19:00:50.891Z,14.70
2019-04-14T19:03:17.630Z,14.70
2019-04-14T19:05:44.348Z,14.80
2019-04-14T19:08:11.124Z,14.70
2019-04-14T19:10:37.852Z,14.90
2019-04-14T19:13:04.572Z,15.50
2019-04-14T19:15:31.357Z,14.90
2019-04-14T19:17:58.096Z,14.80
2019-04-14T19:20:24.839Z,15.10
2019-04-14T19:22:51.681Z,15.10
2019-04-14T19:25:18.451Z,14.80
2019-04-14T19:27:45.131Z,14.80
2019-04-14T19:30:11.931Z,14.60
2019-04-14T19:32:38.679Z,14.80
2019-04-14T19:35:05.426Z,14.60
2019-04-14T19:37:32.188Z,14.60
2019-04-14T19:39:59.064Z,14.60
2019-04-14T19:42:25.902Z,14.20
2019-04-14T19:44:52.737Z,14.60
2019-04-14T19:47:19.580Z,14.60
2019-04-14T19:49:46.328Z,14.50
2019-04-14T19:52:13.129Z,14.50
2019-04-14T19:54:39.908Z,14.60
2019-04-14T19:57:06.754Z,14.70
2019-04-14T19:59:33.591Z,14.60
2019-04-14T20:02:00.426Z,14.40
2019-04-14T20:04:27.278Z,14.60
2019-04-14T20:06:54.211Z,14.40
2019-04-14T20:09:21.077Z,14.70
2019-04-14T20:11:47.875Z,14.60
2019-04-14T20:14:15.097Z,14.60
2019-04-14T20:16:41.874Z,14.50
2019-04-14T20:19:10.618Z,14.50
2019-04-14T20:21:37.150Z,14.50
2019-04-14T20:24:03.887Z,14.40
2019-04-14T20:26:30.714Z,14.50
2019-04-14T20:28:57.974Z,14.60
2019-04-14T20:31:24.758Z,14.60
2019-04-14T20:33:51.522Z,14.60
2019-04-14T20:36:18.370Z,14.60
2019-04-14T20:38:45.115Z,14.80
2019-04-14T20:41:11.867Z,15.20
2019-04-14T20:43:38.697Z,14.50
2019-04-14T20:46:05.440Z,14.50
2019-04-14T20:48:32.155Z,14.70
2019-04-14T20:50:58.973Z,14.60
2019-04-14T20:53:25.709Z,14.70
2019-04-14T20:55:52.432Z,14.40
2019-04-14T20:58:19.223Z,14.70
2019-04-14T21:00:45.961Z,14.50
2019-04-14T21:03:12.701Z,14.50
2019-04-14T21:05:39.465Z,14.90
2019-04-14T21:08:06.189Z,14.80
2019-04-14T21:10:32.913Z,14.60
2019-04-14T21:12:59.823Z,14.70
2019-04-14T21:15:26.510Z,14.90
2019-04-14T21:17:53.230Z,14.80
2019-04-14T21:20:20.021Z,14.80
2019-04-14T21:22:46.776Z,14.70
2019-04-14T21:25:13.504Z,14.80
2019-04-14T21:27:40.777Z,14.80
2019-04-14T21:30:07.501Z,14.80
2019-04-14T21:32:34.227Z,15.00
2019-04-14T21:35:01.116Z,14.70
2019-04-14T21:37:27.966Z,14.60
2019-04-14T21:39:54.702Z,14.70
2019-04-14T21:42:21.707Z,14.70
2019-04-14T21:44:48.510Z,14.50
2019-04-14T21:47:15.224Z,14.70
2019-04-14T21:49:42.023Z,15.10
2019-04-14T21:52:08.743Z,14.80
2019-04-14T21:54:35.457Z,14.80
2019-04-14T21:57:02.250Z,14.90
2019-04-14T21:59:28.980Z,14.90
2019-04-14T22:01:55.698Z,14.80
2019-04-14T22:04:22.885Z,14.80
2019-04-14T22:06:49.522Z,14.70
2019-04-14T22:09:16.237Z,14.90
2019-04-14T22:11:43.033Z,15.00
2019-04-14T22:14:09.774Z,14.60
2019-04-14T22:16:36.507Z,14.90
2019-04-14T22:19:03.291Z,14.80
2019-04-14T22:21:30.010Z,14.90
2019-04-14T22:24:01.600Z,15.00
2019-04-14T22:26:26.216Z,15.30
2019-04-14T22:28:53.285Z,15.10
2019-04-14T22:31:20.010Z,15.00
2019-04-14T22:33:46.802Z,15.10
2019-04-14T22:36:13.532Z,15.30
2019-04-14T22:38:40.497Z,15.30
2019-04-14T22:41:07.478Z,15.10
2019-04-14T22:43:34.164Z,15.10
2019-04-14T22:46:00.908Z,15.20
2019-04-14T22:48:27.845Z,15.20
2019-04-14T22:50:54.738Z,15.40
2019-04-14T22:53:21.670Z,15.60
2019-04-14T22:55:48.381Z,15.40
2019-04-14T22:58:15.107Z,15.30
2019-04-14T23:00:41.844Z,15.60
2019-04-14T23:03:08.645Z,15.50
2019-04-14T23:05:35.372Z,15.50
2019-04-14T23:08:02.093Z,15.60
2019-04-14T23:10:28.864Z,15.30
2019-04-14T23:12:55.598Z,15.50
2019-04-14T23:15:22.326Z,15.50
2019-04-14T23:17:49.124Z,15.60
2019-04-14T23:20:15.854Z,15.60
2019-04-14T23:22:42.580Z,15.60
2019-04-14T23:25:09.356Z,15.60
2019-04-14T23:27:36.072Z,15.60
2019-04-14T23:30:02.800Z,15.60
2019-04-14T23:32:29.592Z,15.60
2019-04-14T23:34:56.308Z,15.80
2019-04-14T23:37:23.037Z,15.70
2019-04-14T23:39:49.997Z,15.90
2019-04-14T23:42:16.721Z,15.90
2019-04-14T23:44:43.771Z,15.70
2019-04-14T23:47:10.560Z,15.90
2019-04-14T23:49:37.286Z,15.90
2019-04-14T23:52:04.131Z,16.00
2019-04-14T23:54:31.169Z,16.10
2019-04-14T23:57:05.536Z,16.40
2019-04-14T23:59:26.290Z,16.40
